Gassville, AR

9:21 AM CST on February 06, 2016 (GMT -0600)
Baxter County Regional | | Change Station
CLOSE
Current Station
Airport
Location: Mountain Home,
Elevation: 925 ft
Nearby Weather Stations

Elev 925 ft 36.37 °N, 92.47 °W | Updated 28 minutes ago

Clear
Clear
38 °F
Feels Like 38 °F
N
0
Wind Variable Wind from North

Today
High -- | Low -- °F
--% Chance of Precip.
Yesterday
High -- | Low -- °F
Precip. -- in
Pressure 30.35 in
Visibility 7.0 miles
Clouds Clear
Dew Point 19 °F
Humidity 47%
Rainfall 0.00 in
Snow Depth Not available.
7:07 AM 5:41 PM
Waning Crescent, 5% visible
METAR KBPK 061453Z AUTO 00000KT 7SM CLR 03/M07 A3033 RMK AO2 SLP275 T00331072 51007
Pressure 30.35 in
Visibility 7.0 miles
Clouds Clear
Dew Point 19 °F
Humidity 47%
Rainfall 0.00 in
Snow Depth Not available.
7:07 AM 5:41 PM
Waning Crescent, 5% visible
METAR KBPK 061453Z AUTO 00000KT 7SM CLR 03/M07 A3033 RMK AO2 SLP275 T00331072 51007

10-Day Weather Forecast

Almanac

Astronomy

Feb. 06, 2016 Rise Set
Actual Time
Civil Twilight
Nautical Twilight
Astronomical Twilight
Moon
Length of Visible Light
Length of Day
Tomorrow will be .
, % of the Moon is Illuminated

Today's Extremes

State Highs State Lows

Community

WunderPhotos

Upload Photos

1,890,987 photos uploaded!

WunderBlog® & News

Nearby

Air Quality

  Air Quality AQ Index Pollutant
Not available.

Snow Depth

Station Depth Elevation

Earthquake Activity

City Distance Mag. Time & Date
Minimum magnitude displayed is 2.5.

Coastal Water Temperatures

Place Temperature

Stations

Nearby Weather Stations

Station Location Temp. Windchill Dew Point Humidity Wind Precip. Elev Updated Type
                   

Watches & Warnings

There are currently no watches in effect.